Clapham, New Mexico
Current Conditions -  °F | °C
As of 2:55 AM on Monday 26 Jan 2015 (Local Time) from KCAO Reporting Station
Clear Clear  
Wind Chill: 36°   Ceiling: Unl
Heat Index: 44°   Visibility: 10mi
Dew Point: 23°   Wind: 18mph
Humidity: 43%   Direction: 270°W
Pressure: 30.23"   Gusts: NA
Location:  36.2639°N, 103.376°W
Report Text: KCAO 260955Z AUTO 27016KT 10SM CLR 07/M05 A3023 RMK AO2 SLP224 T00671050
Loading
Personal Weather Stations






























Interactive Weather Map New forecast layout! Learn more

10-Day Weather Forecast

Advertisements
Track Severe Weather on mobile